sensor_id;sensor_type;location;lat;lon;timestamp;P1;durP1;ratioP1;P2;durP2;ratioP2
18265;SDS011;9259;48.194;16.322;2023-12-14T00:01:55;19.87;;;9.97;;
18265;SDS011;9259;48.194;16.322;2023-12-14T00:04:23;20.93;;;10.13;;
18265;SDS011;9259;48.194;16.322;2023-12-14T00:06:52;18.67;;;10.30;;
18265;SDS011;9259;48.194;16.322;2023-12-14T00:09:20;18.77;;;9.60;;
18265;SDS011;9259;48.194;16.322;2023-12-14T00:11:48;18.63;;;10.00;;
18265;SDS011;9259;48.194;16.322;2023-12-14T00:14:16;20.27;;;10.30;;
18265;SDS011;9259;48.194;16.322;2023-12-14T00:16:44;15.80;;;9.80;;
18265;SDS011;9259;48.194;16.322;2023-12-14T00:19:12;17.77;;;10.30;;
18265;SDS011;9259;48.194;16.322;2023-12-14T00:21:39;20.07;;;10.53;;
18265;SDS011;9259;48.194;16.322;2023-12-14T00:24:09;19.43;;;10.37;;
18265;SDS011;9259;48.194;16.322;2023-12-14T00:26:36;18.87;;;10.20;;
18265;SDS011;9259;48.194;16.322;2023-12-14T00:29:04;22.67;;;10.77;;
18265;SDS011;9259;48.194;16.322;2023-12-14T00:31:32;22.83;;;10.87;;
18265;SDS011;9259;48.194;16.322;2023-12-14T00:34:00;23.07;;;10.73;;
18265;SDS011;9259;48.194;16.322;2023-12-14T00:36:28;25.40;;;11.70;;
18265;SDS011;9259;48.194;16.322;2023-12-14T00:38:56;21.07;;;10.77;;
18265;SDS011;9259;48.194;16.322;2023-12-14T00:41:25;21.17;;;11.57;;
18265;SDS011;9259;48.194;16.322;2023-12-14T00:43:53;21.60;;;10.73;;
18265;SDS011;9259;48.194;16.322;2023-12-14T00:46:21;20.27;;;10.87;;
18265;SDS011;9259;48.194;16.322;2023-12-14T00:48:49;23.43;;;11.03;;
18265;SDS011;9259;48.194;16.322;2023-12-14T00:51:17;22.63;;;11.03;;
18265;SDS011;9259;48.194;16.322;2023-12-14T00:53:45;21.33;;;11.20;;
18265;SDS011;9259;48.194;16.322;2023-12-14T00:56:13;20.27;;;10.50;;
18265;SDS011;9259;48.194;16.322;2023-12-14T00:58:42;22.37;;;11.30;;
18265;SDS011;9259;48.194;16.322;2023-12-14T01:01:10;19.67;;;10.73;;
18265;SDS011;9259;48.194;16.322;2023-12-14T01:03:37;23.80;;;11.37;;
18265;SDS011;9259;48.194;16.322;2023-12-14T01:06:05;22.33;;;11.43;;
18265;SDS011;9259;48.194;16.322;2023-12-14T01:08:33;22.67;;;12.17;;
18265;SDS011;9259;48.194;16.322;2023-12-14T01:11:01;19.33;;;10.83;;
18265;SDS011;9259;48.194;16.322;2023-12-14T01:13:29;31.23;;;15.70;;
18265;SDS011;9259;48.194;16.322;2023-12-14T01:15:59;42.40;;;19.20;;
18265;SDS011;9259;48.194;16.322;2023-12-14T01:18:26;34.00;;;17.93;;
18265;SDS011;9259;48.194;16.322;2023-12-14T01:20:54;38.47;;;16.97;;
18265;SDS011;9259;48.194;16.322;2023-12-14T01:23:22;36.67;;;16.73;;
18265;SDS011;9259;48.194;16.322;2023-12-14T01:25:50;41.03;;;17.83;;
18265;SDS011;9259;48.194;16.322;2023-12-14T01:28:18;33.40;;;17.33;;
18265;SDS011;9259;48.194;16.322;2023-12-14T01:30:45;37.57;;;17.20;;
18265;SDS011;9259;48.194;16.322;2023-12-14T01:33:15;39.17;;;18.57;;
18265;SDS011;9259;48.194;16.322;2023-12-14T01:35:42;38.70;;;18.43;;
18265;SDS011;9259;48.194;16.322;2023-12-14T01:38:10;38.07;;;18.07;;
18265;SDS011;9259;48.194;16.322;2023-12-14T01:40:38;38.13;;;18.60;;
18265;SDS011;9259;48.194;16.322;2023-12-14T01:43:07;41.60;;;19.37;;
18265;SDS011;9259;48.194;16.322;2023-12-14T01:45:36;39.73;;;19.03;;
18265;SDS011;9259;48.194;16.322;2023-12-14T01:48:04;40.43;;;19.30;;
18265;SDS011;9259;48.194;16.322;2023-12-14T01:50:33;40.20;;;18.10;;
18265;SDS011;9259;48.194;16.322;2023-12-14T01:53:01;41.97;;;19.77;;
18265;SDS011;9259;48.194;16.322;2023-12-14T01:55:29;43.30;;;19.07;;
18265;SDS011;9259;48.194;16.322;2023-12-14T01:57:57;43.50;;;19.37;;
18265;SDS011;9259;48.194;16.322;2023-12-14T02:00:27;37.43;;;19.27;;
18265;SDS011;9259;48.194;16.322;2023-12-14T02:03:03;43.17;;;19.03;;
18265;SDS011;9259;48.194;16.322;2023-12-14T02:05:31;40.40;;;19.03;;
18265;SDS011;9259;48.194;16.322;2023-12-14T02:08:01;40.67;;;18.67;;
18265;SDS011;9259;48.194;16.322;2023-12-14T02:10:29;39.47;;;19.30;;
18265;SDS011;9259;48.194;16.322;2023-12-14T02:12:56;38.77;;;19.23;;
18265;SDS011;9259;48.194;16.322;2023-12-14T02:15:24;35.07;;;17.30;;
18265;SDS011;9259;48.194;16.322;2023-12-14T02:17:52;37.53;;;18.50;;
18265;SDS011;9259;48.194;16.322;2023-12-14T02:20:20;39.47;;;19.33;;
18265;SDS011;9259;48.194;16.322;2023-12-14T02:22:50;40.93;;;19.33;;
18265;SDS011;9259;48.194;16.322;2023-12-14T02:25:18;40.07;;;17.93;;
18265;SDS011;9259;48.194;16.322;2023-12-14T02:27:46;38.43;;;19.60;;
18265;SDS011;9259;48.194;16.322;2023-12-14T02:30:14;37.67;;;18.23;;
18265;SDS011;9259;48.194;16.322;2023-12-14T02:32:42;44.83;;;19.60;;
18265;SDS011;9259;48.194;16.322;2023-12-14T02:35:11;37.17;;;17.93;;
18265;SDS011;9259;48.194;16.322;2023-12-14T02:37:38;38.87;;;16.97;;
18265;SDS011;9259;48.194;16.322;2023-12-14T02:40:09;37.90;;;18.03;;
18265;SDS011;9259;48.194;16.322;2023-12-14T02:42:37;38.50;;;18.17;;
18265;SDS011;9259;48.194;16.322;2023-12-14T02:45:06;38.60;;;18.20;;
18265;SDS011;9259;48.194;16.322;2023-12-14T02:47:35;36.50;;;17.67;;
18265;SDS011;9259;48.194;16.322;2023-12-14T02:50:03;39.60;;;18.77;;
18265;SDS011;9259;48.194;16.322;2023-12-14T02:52:32;41.73;;;18.43;;
18265;SDS011;9259;48.194;16.322;2023-12-14T02:55:00;40.73;;;17.67;;
18265;SDS011;9259;48.194;16.322;2023-12-14T02:57:29;36.50;;;17.40;;
18265;SDS011;9259;48.194;16.322;2023-12-14T02:59:57;34.87;;;18.23;;
18265;SDS011;9259;48.194;16.322;2023-12-14T03:02:25;38.90;;;17.80;;
18265;SDS011;9259;48.194;16.322;2023-12-14T03:04:53;38.17;;;17.63;;
18265;SDS011;9259;48.194;16.322;2023-12-14T03:07:21;33.90;;;16.50;;
18265;SDS011;9259;48.194;16.322;2023-12-14T03:09:49;35.37;;;17.67;;
18265;SDS011;9259;48.194;16.322;2023-12-14T03:12:16;37.73;;;17.43;;
18265;SDS011;9259;48.194;16.322;2023-12-14T03:14:46;34.60;;;16.40;;
18265;SDS011;9259;48.194;16.322;2023-12-14T03:17:13;34.23;;;16.83;;
18265;SDS011;9259;48.194;16.322;2023-12-14T03:19:42;34.50;;;15.63;;
18265;SDS011;9259;48.194;16.322;2023-12-14T03:22:10;34.37;;;16.33;;
18265;SDS011;9259;48.194;16.322;2023-12-14T03:24:38;30.63;;;15.10;;
18265;SDS011;9259;48.194;16.322;2023-12-14T03:27:06;31.83;;;15.77;;
18265;SDS011;9259;48.194;16.322;2023-12-14T03:29:34;26.67;;;14.30;;
18265;SDS011;9259;48.194;16.322;2023-12-14T03:32:04;28.43;;;15.13;;
18265;SDS011;9259;48.194;16.322;2023-12-14T03:34:32;29.57;;;14.87;;
18265;SDS011;9259;48.194;16.322;2023-12-14T03:37:00;28.63;;;14.87;;
18265;SDS011;9259;48.194;16.322;2023-12-14T03:39:28;30.30;;;14.50;;
18265;SDS011;9259;48.194;16.322;2023-12-14T03:41:55;27.67;;;15.10;;
18265;SDS011;9259;48.194;16.322;2023-12-14T03:44:23;28.00;;;14.17;;
18265;SDS011;9259;48.194;16.322;2023-12-14T03:46:51;27.40;;;14.63;;
18265;SDS011;9259;48.194;16.322;2023-12-14T03:49:21;28.00;;;14.67;;
18265;SDS011;9259;48.194;16.322;2023-12-14T03:51:49;29.33;;;13.87;;
18265;SDS011;9259;48.194;16.322;2023-12-14T03:54:17;26.83;;;14.13;;
18265;SDS011;9259;48.194;16.322;2023-12-14T03:56:45;24.33;;;14.27;;
18265;SDS011;9259;48.194;16.322;2023-12-14T03:59:13;26.83;;;14.40;;
18265;SDS011;9259;48.194;16.322;2023-12-14T04:01:40;27.87;;;14.37;;
18265;SDS011;9259;48.194;16.322;2023-12-14T04:04:08;26.23;;;13.33;;
18265;SDS011;9259;48.194;16.322;2023-12-14T04:06:37;24.23;;;13.07;;
18265;SDS011;9259;48.194;16.322;2023-12-14T04:09:05;23.13;;;12.57;;
18265;SDS011;9259;48.194;16.322;2023-12-14T04:11:33;25.33;;;12.30;;
18265;SDS011;9259;48.194;16.322;2023-12-14T04:14:01;24.00;;;12.43;;
18265;SDS011;9259;48.194;16.322;2023-12-14T04:16:29;22.13;;;11.33;;
18265;SDS011;9259;48.194;16.322;2023-12-14T04:18:57;23.40;;;11.60;;
18265;SDS011;9259;48.194;16.322;2023-12-14T04:21:24;17.97;;;10.73;;
18265;SDS011;9259;48.194;16.322;2023-12-14T04:23:53;20.23;;;10.47;;
18265;SDS011;9259;48.194;16.322;2023-12-14T04:26:21;17.13;;;9.47;;
18265;SDS011;9259;48.194;16.322;2023-12-14T04:28:49;19.80;;;10.00;;
18265;SDS011;9259;48.194;16.322;2023-12-14T04:31:17;19.37;;;9.77;;
18265;SDS011;9259;48.194;16.322;2023-12-14T04:33:45;18.60;;;9.43;;
18265;SDS011;9259;48.194;16.322;2023-12-14T04:36:13;16.37;;;9.57;;
18265;SDS011;9259;48.194;16.322;2023-12-14T04:38:40;22.67;;;10.73;;
18265;SDS011;9259;48.194;16.322;2023-12-14T04:41:09;19.67;;;9.97;;
18265;SDS011;9259;48.194;16.322;2023-12-14T04:43:37;15.93;;;9.70;;
18265;SDS011;9259;48.194;16.322;2023-12-14T04:46:05;15.70;;;9.40;;
18265;SDS011;9259;48.194;16.322;2023-12-14T04:48:33;17.47;;;9.97;;
18265;SDS011;9259;48.194;16.322;2023-12-14T04:51:01;16.40;;;10.10;;
18265;SDS011;9259;48.194;16.322;2023-12-14T04:53:29;16.30;;;9.53;;
18265;SDS011;9259;48.194;16.322;2023-12-14T04:55:56;16.00;;;9.97;;
18265;SDS011;9259;48.194;16.322;2023-12-14T04:58:25;16.37;;;10.03;;
18265;SDS011;9259;48.194;16.322;2023-12-14T05:00:53;14.60;;;8.87;;
18265;SDS011;9259;48.194;16.322;2023-12-14T05:03:21;16.80;;;9.73;;
18265;SDS011;9259;48.194;16.322;2023-12-14T05:05:49;15.30;;;9.03;;
18265;SDS011;9259;48.194;16.322;2023-12-14T05:08:17;15.47;;;9.17;;
18265;SDS011;9259;48.194;16.322;2023-12-14T05:10:44;15.63;;;8.53;;
18265;SDS011;9259;48.194;16.322;2023-12-14T05:13:12;14.83;;;8.60;;
18265;SDS011;9259;48.194;16.322;2023-12-14T05:15:41;14.40;;;8.53;;
18265;SDS011;9259;48.194;16.322;2023-12-14T05:18:09;13.40;;;8.00;;
18265;SDS011;9259;48.194;16.322;2023-12-14T05:20:37;13.40;;;8.27;;
18265;SDS011;9259;48.194;16.322;2023-12-14T05:23:05;14.13;;;8.00;;
18265;SDS011;9259;48.194;16.322;2023-12-14T05:25:33;15.23;;;8.50;;
18265;SDS011;9259;48.194;16.322;2023-12-14T05:28:00;12.97;;;8.10;;
18265;SDS011;9259;48.194;16.322;2023-12-14T05:30:28;13.83;;;7.93;;
18265;SDS011;9259;48.194;16.322;2023-12-14T05:32:58;12.33;;;7.77;;
18265;SDS011;9259;48.194;16.322;2023-12-14T05:35:26;10.90;;;6.63;;
18265;SDS011;9259;48.194;16.322;2023-12-14T05:37:53;10.53;;;6.80;;
18265;SDS011;9259;48.194;16.322;2023-12-14T05:40:21;10.77;;;6.53;;
18265;SDS011;9259;48.194;16.322;2023-12-14T05:42:49;10.67;;;6.37;;
18265;SDS011;9259;48.194;16.322;2023-12-14T05:45:17;8.97;;;5.63;;
18265;SDS011;9259;48.194;16.322;2023-12-14T05:47:45;7.63;;;5.43;;
18265;SDS011;9259;48.194;16.322;2023-12-14T05:50:14;10.33;;;5.40;;
18265;SDS011;9259;48.194;16.322;2023-12-14T05:52:42;7.60;;;5.37;;
18265;SDS011;9259;48.194;16.322;2023-12-14T05:55:11;7.27;;;4.30;;
18265;SDS011;9259;48.194;16.322;2023-12-14T05:57:39;7.57;;;4.60;;
18265;SDS011;9259;48.194;16.322;2023-12-14T06:00:07;6.30;;;4.20;;
18265;SDS011;9259;48.194;16.322;2023-12-14T06:02:35;6.30;;;4.03;;
18265;SDS011;9259;48.194;16.322;2023-12-14T06:05:04;6.20;;;3.90;;
18265;SDS011;9259;48.194;16.322;2023-12-14T06:07:35;5.27;;;3.77;;
18265;SDS011;9259;48.194;16.322;2023-12-14T06:10:03;6.93;;;4.20;;
18265;SDS011;9259;48.194;16.322;2023-12-14T06:12:32;6.17;;;3.87;;
18265;SDS011;9259;48.194;16.322;2023-12-14T06:15:00;5.97;;;3.57;;
18265;SDS011;9259;48.194;16.322;2023-12-14T06:17:28;4.17;;;2.73;;
18265;SDS011;9259;48.194;16.322;2023-12-14T06:19:57;3.63;;;2.57;;
18265;SDS011;9259;48.194;16.322;2023-12-14T06:22:25;4.50;;;2.10;;
18265;SDS011;9259;48.194;16.322;2023-12-14T06:24:54;5.00;;;2.47;;
18265;SDS011;9259;48.194;16.322;2023-12-14T06:27:22;4.77;;;2.73;;
18265;SDS011;9259;48.194;16.322;2023-12-14T06:29:52;4.20;;;2.30;;
18265;SDS011;9259;48.194;16.322;2023-12-14T06:32:20;5.00;;;2.20;;
18265;SDS011;9259;48.194;16.322;2023-12-14T06:34:48;5.63;;;2.20;;
18265;SDS011;9259;48.194;16.322;2023-12-14T06:37:16;3.20;;;2.20;;
18265;SDS011;9259;48.194;16.322;2023-12-14T06:39:43;3.57;;;2.20;;
18265;SDS011;9259;48.194;16.322;2023-12-14T06:42:13;4.20;;;2.10;;
18265;SDS011;9259;48.194;16.322;2023-12-14T06:44:41;4.00;;;2.10;;
18265;SDS011;9259;48.194;16.322;2023-12-14T06:47:09;4.87;;;2.10;;
18265;SDS011;9259;48.194;16.322;2023-12-14T06:49:37;4.07;;;2.17;;
18265;SDS011;9259;48.194;16.322;2023-12-14T06:52:04;2.80;;;1.77;;
18265;SDS011;9259;48.194;16.322;2023-12-14T06:54:32;2.97;;;1.80;;
18265;SDS011;9259;48.194;16.322;2023-12-14T06:57:00;3.00;;;1.80;;
18265;SDS011;9259;48.194;16.322;2023-12-14T06:59:29;3.77;;;1.77;;
18265;SDS011;9259;48.194;16.322;2023-12-14T07:01:57;1.67;;;1.20;;
18265;SDS011;9259;48.194;16.322;2023-12-14T07:04:25;2.87;;;1.30;;
18265;SDS011;9259;48.194;16.322;2023-12-14T07:06:53;2.17;;;1.20;;
18265;SDS011;9259;48.194;16.322;2023-12-14T07:09:21;1.70;;;0.90;;
18265;SDS011;9259;48.194;16.322;2023-12-14T07:11:48;1.90;;;0.93;;
18265;SDS011;9259;48.194;16.322;2023-12-14T07:14:16;1.87;;;1.00;;
18265;SDS011;9259;48.194;16.322;2023-12-14T07:16:46;1.50;;;0.90;;
18265;SDS011;9259;48.194;16.322;2023-12-14T07:19:14;2.10;;;0.90;;
18265;SDS011;9259;48.194;16.322;2023-12-14T07:21:42;2.10;;;0.90;;
18265;SDS011;9259;48.194;16.322;2023-12-14T07:24:09;1.63;;;0.80;;
18265;SDS011;9259;48.194;16.322;2023-12-14T07:26:37;2.07;;;0.73;;
18265;SDS011;9259;48.194;16.322;2023-12-14T07:29:05;3.60;;;0.80;;
18265;SDS011;9259;48.194;16.322;2023-12-14T07:31:33;1.43;;;0.70;;
18265;SDS011;9259;48.194;16.322;2023-12-14T07:34:02;2.67;;;0.80;;
18265;SDS011;9259;48.194;16.322;2023-12-14T07:36:30;0.97;;;0.70;;
18265;SDS011;9259;48.194;16.322;2023-12-14T07:38:58;1.73;;;0.77;;
18265;SDS011;9259;48.194;16.322;2023-12-14T07:41:26;2.30;;;0.70;;
18265;SDS011;9259;48.194;16.322;2023-12-14T07:43:55;3.03;;;0.90;;
18265;SDS011;9259;48.194;16.322;2023-12-14T07:46:24;1.23;;;0.83;;
18265;SDS011;9259;48.194;16.322;2023-12-14T07:48:51;1.67;;;0.60;;
18265;SDS011;9259;48.194;16.322;2023-12-14T07:51:21;1.37;;;0.63;;
18265;SDS011;9259;48.194;16.322;2023-12-14T07:53:48;1.63;;;0.50;;
18265;SDS011;9259;48.194;16.322;2023-12-14T07:56:16;1.70;;;0.70;;
18265;SDS011;9259;48.194;16.322;2023-12-14T07:58:44;2.40;;;0.70;;
18265;SDS011;9259;48.194;16.322;2023-12-14T08:01:12;0.63;;;0.50;;
18265;SDS011;9259;48.194;16.322;2023-12-14T08:03:40;1.67;;;0.57;;
18265;SDS011;9259;48.194;16.322;2023-12-14T08:06:07;1.60;;;0.60;;
18265;SDS011;9259;48.194;16.322;2023-12-14T08:08:37;2.03;;;0.83;;
18265;SDS011;9259;48.194;16.322;2023-12-14T08:11:05;2.80;;;0.90;;
18265;SDS011;9259;48.194;16.322;2023-12-14T08:13:33;2.27;;;0.90;;
18265;SDS011;9259;48.194;16.322;2023-12-14T08:16:01;1.30;;;0.63;;
18265;SDS011;9259;48.194;16.322;2023-12-14T08:18:29;1.40;;;0.80;;
18265;SDS011;9259;48.194;16.322;2023-12-14T08:20:57;1.30;;;0.80;;
18265;SDS011;9259;48.194;16.322;2023-12-14T08:23:25;1.90;;;0.90;;
18265;SDS011;9259;48.194;16.322;2023-12-14T08:25:54;1.63;;;0.80;;
18265;SDS011;9259;48.194;16.322;2023-12-14T08:28:22;1.53;;;0.93;;
18265;SDS011;9259;48.194;16.322;2023-12-14T08:30:51;3.07;;;0.90;;
18265;SDS011;9259;48.194;16.322;2023-12-14T08:33:19;1.33;;;0.90;;
18265;SDS011;9259;48.194;16.322;2023-12-14T08:35:46;2.10;;;0.90;;
18265;SDS011;9259;48.194;16.322;2023-12-14T08:38:14;2.67;;;0.90;;
18265;SDS011;9259;48.194;16.322;2023-12-14T08:40:42;1.40;;;0.80;;
18265;SDS011;9259;48.194;16.322;2023-12-14T08:43:12;1.90;;;1.00;;
18265;SDS011;9259;48.194;16.322;2023-12-14T08:45:40;1.47;;;0.90;;
18265;SDS011;9259;48.194;16.322;2023-12-14T08:48:07;2.07;;;1.03;;
18265;SDS011;9259;48.194;16.322;2023-12-14T08:50:35;1.60;;;1.00;;
18265;SDS011;9259;48.194;16.322;2023-12-14T08:53:03;1.73;;;1.07;;
18265;SDS011;9259;48.194;16.322;2023-12-14T08:55:31;1.53;;;0.90;;
18265;SDS011;9259;48.194;16.322;2023-12-14T08:57:59;1.70;;;1.23;;
18265;SDS011;9259;48.194;16.322;2023-12-14T09:00:28;3.13;;;1.80;;
18265;SDS011;9259;48.194;16.322;2023-12-14T09:02:56;4.13;;;1.60;;
18265;SDS011;9259;48.194;16.322;2023-12-14T09:05:24;2.47;;;1.03;;
18265;SDS011;9259;48.194;16.322;2023-12-14T09:07:52;6.80;;;0.90;;
18265;SDS011;9259;48.194;16.322;2023-12-14T09:10:22;3.70;;;1.23;;
18265;SDS011;9259;48.194;16.322;2023-12-14T09:12:49;2.73;;;0.80;;
18265;SDS011;9259;48.194;16.322;2023-12-14T09:15:17;2.17;;;1.07;;
18265;SDS011;9259;48.194;16.322;2023-12-14T09:17:47;2.57;;;0.83;;
18265;SDS011;9259;48.194;16.322;2023-12-14T09:20:14;1.57;;;0.83;;
18265;SDS011;9259;48.194;16.322;2023-12-14T09:22:42;1.97;;;1.03;;
18265;SDS011;9259;48.194;16.322;2023-12-14T09:25:10;2.53;;;0.90;;
18265;SDS011;9259;48.194;16.322;2023-12-14T09:27:38;1.40;;;0.90;;
18265;SDS011;9259;48.194;16.322;2023-12-14T09:30:06;2.53;;;1.00;;
18265;SDS011;9259;48.194;16.322;2023-12-14T09:32:35;1.70;;;0.80;;
18265;SDS011;9259;48.194;16.322;2023-12-14T09:35:07;1.57;;;0.80;;
18265;SDS011;9259;48.194;16.322;2023-12-14T09:37:35;2.07;;;0.60;;
18265;SDS011;9259;48.194;16.322;2023-12-14T09:40:03;1.47;;;0.87;;
18265;SDS011;9259;48.194;16.322;2023-12-14T09:42:36;4.07;;;0.70;;
18265;SDS011;9259;48.194;16.322;2023-12-14T09:45:06;1.33;;;0.70;;
18265;SDS011;9259;48.194;16.322;2023-12-14T09:47:35;1.77;;;0.90;;
18265;SDS011;9259;48.194;16.322;2023-12-14T09:50:04;1.70;;;1.00;;
18265;SDS011;9259;48.194;16.322;2023-12-14T09:52:35;1.63;;;0.70;;
18265;SDS011;9259;48.194;16.322;2023-12-14T09:55:03;1.30;;;0.80;;
18265;SDS011;9259;48.194;16.322;2023-12-14T09:57:32;2.30;;;0.97;;
18265;SDS011;9259;48.194;16.322;2023-12-14T10:00:00;1.57;;;0.90;;
18265;SDS011;9259;48.194;16.322;2023-12-14T10:02:30;2.30;;;1.03;;
18265;SDS011;9259;48.194;16.322;2023-12-14T10:04:58;0.90;;;0.50;;
18265;SDS011;9259;48.194;16.322;2023-12-14T10:07:27;1.00;;;0.73;;
18265;SDS011;9259;48.194;16.322;2023-12-14T10:09:55;1.30;;;0.60;;
18265;SDS011;9259;48.194;16.322;2023-12-14T10:12:49;1.87;;;0.90;;
18265;SDS011;9259;48.194;16.322;2023-12-14T10:15:19;0.97;;;0.70;;
18265;SDS011;9259;48.194;16.322;2023-12-14T10:17:50;1.33;;;0.80;;
18265;SDS011;9259;48.194;16.322;2023-12-14T10:20:20;2.17;;;1.00;;
18265;SDS011;9259;48.194;16.322;2023-12-14T10:22:50;1.30;;;0.87;;
18265;SDS011;9259;48.194;16.322;2023-12-14T10:25:18;2.40;;;1.00;;
18265;SDS011;9259;48.194;16.322;2023-12-14T10:27:46;2.70;;;0.80;;
18265;SDS011;9259;48.194;16.322;2023-12-14T10:30:14;1.47;;;0.90;;
18265;SDS011;9259;48.194;16.322;2023-12-14T10:32:42;1.67;;;0.80;;
18265;SDS011;9259;48.194;16.322;2023-12-14T10:35:10;1.13;;;0.80;;
18265;SDS011;9259;48.194;16.322;2023-12-14T10:37:38;2.13;;;0.80;;
18265;SDS011;9259;48.194;16.322;2023-12-14T10:40:08;1.43;;;0.70;;
18265;SDS011;9259;48.194;16.322;2023-12-14T10:42:37;1.77;;;0.90;;
18265;SDS011;9259;48.194;16.322;2023-12-14T10:45:10;1.77;;;0.77;;
18265;SDS011;9259;48.194;16.322;2023-12-14T10:47:43;1.20;;;0.70;;
18265;SDS011;9259;48.194;16.322;2023-12-14T10:50:11;2.27;;;0.80;;
18265;SDS011;9259;48.194;16.322;2023-12-14T10:52:39;1.23;;;0.73;;
18265;SDS011;9259;48.194;16.322;2023-12-14T10:55:18;1.20;;;0.63;;
18265;SDS011;9259;48.194;16.322;2023-12-14T10:57:51;1.00;;;0.70;;
18265;SDS011;9259;48.194;16.322;2023-12-14T11:00:19;1.17;;;0.67;;
18265;SDS011;9259;48.194;16.322;2023-12-14T11:02:47;2.23;;;0.70;;
18265;SDS011;9259;48.194;16.322;2023-12-14T11:05:15;1.00;;;0.83;;
18265;SDS011;9259;48.194;16.322;2023-12-14T11:07:49;3.23;;;0.90;;
18265;SDS011;9259;48.194;16.322;2023-12-14T11:10:21;0.97;;;0.60;;
18265;SDS011;9259;48.194;16.322;2023-12-14T11:12:57;1.00;;;0.70;;
18265;SDS011;9259;48.194;16.322;2023-12-14T11:15:29;2.20;;;0.80;;
18265;SDS011;9259;48.194;16.322;2023-12-14T11:20:51;0.83;;;0.67;;
18265;SDS011;9259;48.194;16.322;2023-12-14T11:23:29;1.87;;;1.00;;
18265;SDS011;9259;48.194;16.322;2023-12-14T11:26:04;1.90;;;0.93;;
18265;SDS011;9259;48.194;16.322;2023-12-14T11:28:34;2.33;;;1.20;;
18265;SDS011;9259;48.194;16.322;2023-12-14T11:31:04;1.33;;;0.80;;
18265;SDS011;9259;48.194;16.322;2023-12-14T11:33:33;2.60;;;1.37;;
18265;SDS011;9259;48.194;16.322;2023-12-14T11:36:01;3.00;;;1.50;;
18265;SDS011;9259;48.194;16.322;2023-12-14T11:38:30;3.37;;;1.83;;
18265;SDS011;9259;48.194;16.322;2023-12-14T11:40:58;3.97;;;1.93;;
18265;SDS011;9259;48.194;16.322;2023-12-14T11:43:28;3.50;;;1.90;;
18265;SDS011;9259;48.194;16.322;2023-12-14T11:45:56;3.87;;;1.80;;
18265;SDS011;9259;48.194;16.322;2023-12-14T11:48:24;3.00;;;1.87;;
18265;SDS011;9259;48.194;16.322;2023-12-14T11:50:52;6.27;;;2.00;;
18265;SDS011;9259;48.194;16.322;2023-12-14T11:53:20;3.63;;;1.80;;
18265;SDS011;9259;48.194;16.322;2023-12-14T11:55:48;3.30;;;2.00;;
18265;SDS011;9259;48.194;16.322;2023-12-14T11:58:16;4.73;;;2.00;;
18265;SDS011;9259;48.194;16.322;2023-12-14T12:00:46;4.67;;;2.47;;
18265;SDS011;9259;48.194;16.322;2023-12-14T12:03:14;7.13;;;2.40;;
18265;SDS011;9259;48.194;16.322;2023-12-14T12:05:46;6.47;;;2.90;;
18265;SDS011;9259;48.194;16.322;2023-12-14T12:08:15;3.60;;;2.20;;
18265;SDS011;9259;48.194;16.322;2023-12-14T12:10:45;3.03;;;2.03;;
18265;SDS011;9259;48.194;16.322;2023-12-14T12:13:15;3.73;;;2.23;;
18265;SDS011;9259;48.194;16.322;2023-12-14T12:15:46;4.33;;;2.67;;
18265;SDS011;9259;48.194;16.322;2023-12-14T12:18:15;7.60;;;2.80;;
18265;SDS011;9259;48.194;16.322;2023-12-14T12:20:44;3.87;;;2.40;;
18265;SDS011;9259;48.194;16.322;2023-12-14T12:23:12;6.03;;;2.70;;
18265;SDS011;9259;48.194;16.322;2023-12-14T12:25:40;3.83;;;2.23;;
18265;SDS011;9259;48.194;16.322;2023-12-14T12:28:07;4.30;;;2.23;;
18265;SDS011;9259;48.194;16.322;2023-12-14T12:30:35;3.57;;;2.13;;
18265;SDS011;9259;48.194;16.322;2023-12-14T12:33:04;3.57;;;2.20;;
18265;SDS011;9259;48.194;16.322;2023-12-14T12:35:32;4.03;;;2.43;;
18265;SDS011;9259;48.194;16.322;2023-12-14T12:38:00;3.23;;;2.07;;
18265;SDS011;9259;48.194;16.322;2023-12-14T12:40:29;3.73;;;2.30;;
18265;SDS011;9259;48.194;16.322;2023-12-14T12:42:59;2.27;;;1.87;;
18265;SDS011;9259;48.194;16.322;2023-12-14T12:45:27;4.97;;;2.23;;
18265;SDS011;9259;48.194;16.322;2023-12-14T12:47:54;3.40;;;2.13;;
18265;SDS011;9259;48.194;16.322;2023-12-14T12:50:24;3.87;;;2.00;;
18265;SDS011;9259;48.194;16.322;2023-12-14T12:52:51;4.17;;;2.40;;
18265;SDS011;9259;48.194;16.322;2023-12-14T12:55:19;3.57;;;2.17;;
18265;SDS011;9259;48.194;16.322;2023-12-14T12:57:47;3.53;;;2.20;;
18265;SDS011;9259;48.194;16.322;2023-12-14T13:00:16;3.53;;;2.10;;
18265;SDS011;9259;48.194;16.322;2023-12-14T13:02:44;3.90;;;2.70;;
18265;SDS011;9259;48.194;16.322;2023-12-14T13:05:12;3.87;;;2.00;;
18265;SDS011;9259;48.194;16.322;2023-12-14T13:07:43;3.70;;;2.00;;
18265;SDS011;9259;48.194;16.322;2023-12-14T13:10:12;2.20;;;1.60;;
18265;SDS011;9259;48.194;16.322;2023-12-14T13:12:40;6.53;;;1.83;;
18265;SDS011;9259;48.194;16.322;2023-12-14T13:15:08;3.00;;;1.77;;
18265;SDS011;9259;48.194;16.322;2023-12-14T13:17:37;1.83;;;1.30;;
18265;SDS011;9259;48.194;16.322;2023-12-14T13:20:05;3.57;;;2.00;;
18265;SDS011;9259;48.194;16.322;2023-12-14T13:22:34;3.73;;;2.27;;
18265;SDS011;9259;48.194;16.322;2023-12-14T13:25:04;4.30;;;2.10;;
18265;SDS011;9259;48.194;16.322;2023-12-14T13:27:32;4.20;;;2.03;;
18265;SDS011;9259;48.194;16.322;2023-12-14T13:30:02;2.70;;;1.73;;
18265;SDS011;9259;48.194;16.322;2023-12-14T13:32:31;2.90;;;1.80;;
18265;SDS011;9259;48.194;16.322;2023-12-14T13:34:59;3.47;;;1.80;;
18265;SDS011;9259;48.194;16.322;2023-12-14T13:37:27;2.83;;;1.67;;
18265;SDS011;9259;48.194;16.322;2023-12-14T13:39:55;3.70;;;2.07;;
18265;SDS011;9259;48.194;16.322;2023-12-14T13:42:24;3.67;;;1.90;;
18265;SDS011;9259;48.194;16.322;2023-12-14T13:44:52;3.57;;;1.73;;
18265;SDS011;9259;48.194;16.322;2023-12-14T13:47:20;3.70;;;2.03;;
18265;SDS011;9259;48.194;16.322;2023-12-14T13:49:48;6.13;;;2.20;;
18265;SDS011;9259;48.194;16.322;2023-12-14T13:52:16;3.23;;;1.90;;
18265;SDS011;9259;48.194;16.322;2023-12-14T13:54:44;2.60;;;1.53;;
18265;SDS011;9259;48.194;16.322;2023-12-14T13:57:12;1.93;;;1.43;;
18265;SDS011;9259;48.194;16.322;2023-12-14T13:59:41;1.67;;;1.37;;
18265;SDS011;9259;48.194;16.322;2023-12-14T14:02:09;3.57;;;1.73;;
18265;SDS011;9259;48.194;16.322;2023-12-14T14:04:37;2.73;;;1.40;;
18265;SDS011;9259;48.194;16.322;2023-12-14T14:07:05;3.07;;;1.70;;
18265;SDS011;9259;48.194;16.322;2023-12-14T14:09:33;2.00;;;1.20;;
18265;SDS011;9259;48.194;16.322;2023-12-14T14:12:01;2.27;;;1.33;;
18265;SDS011;9259;48.194;16.322;2023-12-14T14:14:29;6.20;;;1.20;;
18265;SDS011;9259;48.194;16.322;2023-12-14T14:16:59;2.70;;;1.43;;
18265;SDS011;9259;48.194;16.322;2023-12-14T14:19:28;2.40;;;1.60;;
18265;SDS011;9259;48.194;16.322;2023-12-14T14:21:55;3.30;;;1.80;;
18265;SDS011;9259;48.194;16.322;2023-12-14T14:24:23;3.20;;;1.53;;
18265;SDS011;9259;48.194;16.322;2023-12-14T14:26:51;4.33;;;1.80;;
18265;SDS011;9259;48.194;16.322;2023-12-14T14:29:19;4.10;;;1.47;;
18265;SDS011;9259;48.194;16.322;2023-12-14T14:31:47;3.23;;;1.60;;
18265;SDS011;9259;48.194;16.322;2023-12-14T14:34:16;2.67;;;1.63;;
18265;SDS011;9259;48.194;16.322;2023-12-14T14:36:44;3.23;;;1.53;;
18265;SDS011;9259;48.194;16.322;2023-12-14T14:39:12;4.60;;;1.80;;
18265;SDS011;9259;48.194;16.322;2023-12-14T14:41:40;3.83;;;1.67;;
18265;SDS011;9259;48.194;16.322;2023-12-14T14:44:08;4.27;;;2.00;;
18265;SDS011;9259;48.194;16.322;2023-12-14T14:46:35;2.40;;;1.67;;
18265;SDS011;9259;48.194;16.322;2023-12-14T14:49:03;3.10;;;1.90;;